Time;durP1;ratioP1;P1;durP2;ratioP2;P2;SDS_P1;SDS_P2;PMS_P1;PMS_P2;Temp;Humidity;BMP_temperature;BMP_pressure;BME280_temperature;BME280_humidity;BME280_pressure;Samples;Min_cycle;Max_cycle;Signal;HPM_P1;HPM_P2
2023/03/24 00:01:04;;;;;;;1.27;0.70;;;;;;;12.99;96.34;99408.63;5025798;28;20065;-49
2023/03/24 00:03:31;;;;;;;0.73;0.68;;;;;;;13.03;96.77;99403.91;5033438;28;20025;-47
2023/03/24 00:06:00;;;;;;;0.40;0.40;;;;;;;12.90;97.04;99402.91;5024128;28;20032;-51
2023/03/24 00:08:29;;;;;;;0.75;0.52;;;;;;;12.96;97.35;99409.41;5039716;28;20036;-48
2023/03/24 00:10:59;;;;;;;0.30;0.30;;;;;;;13.01;97.06;99396.22;5034590;28;20474;-48
2023/03/24 00:13:25;;;;;;;0.50;0.50;;;;;;;13.24;95.50;99403.75;5042569;28;20049;-48
2023/03/24 00:15:50;;;;;;;0.35;0.30;;;;;;;13.19;95.17;99404.19;5040758;28;20025;-48
2023/03/24 00:18:21;;;;;;;0.55;0.32;;;;;;;12.99;97.48;99395.09;5043272;28;20314;-48
2023/03/24 00:20:47;;;;;;;0.57;0.40;;;;;;;13.11;97.00;99384.56;5047391;28;20037;-48
2023/03/24 00:23:14;;;;;;;0.90;0.47;;;;;;;13.16;96.98;99383.38;5046364;28;20029;-50
2023/03/24 00:25:40;;;;;;;0.47;0.40;;;;;;;13.37;95.61;99380.41;5033363;28;20495;-48
2023/03/24 00:28:06;;;;;;;0.47;0.47;;;;;;;13.27;95.81;99376.66;5046446;28;20082;-47
2023/03/24 00:30:53;;;;;;;0.52;0.52;;;;;;;13.19;97.09;99375.22;5038261;28;20132;-48
2023/03/24 00:33:19;;;;;;;0.40;0.32;;;;;;;13.37;96.07;99369.59;4950483;28;20051;-48
2023/03/24 00:35:47;;;;;;;1.13;0.60;;;;;;;13.33;96.35;99366.16;4942793;28;20066;-48
2023/03/24 00:38:12;;;;;;;0.40;0.38;;;;;;;13.42;95.91;99367.22;4968234;28;20078;-50
2023/03/24 00:40:38;;;;;;;0.40;0.40;;;;;;;13.41;95.75;99367.63;4965943;28;20058;-48
2023/03/24 00:43:03;;;;;;;3.38;0.65;;;;;;;13.56;95.43;99356.22;4952859;28;20121;-48
2023/03/24 00:45:33;;;;;;;0.25;0.15;;;;;;;13.40;95.26;99349.84;4964281;28;20457;-47
2023/03/24 00:47:59;;;;;;;1.65;0.30;;;;;;;13.31;96.90;99350.34;4964550;28;20548;-47
2023/03/24 00:50:27;;;;;;;0.60;0.28;;;;;;;13.32;96.39;99348.41;4965271;28;20125;-49
2023/03/24 00:52:54;;;;;;;0.30;0.30;;;;;;;13.13;98.03;99346.31;4965354;28;20038;-49
2023/03/24 00:55:20;;;;;;;1.00;0.50;;;;;;;13.18;98.38;99335.06;4949923;28;20183;-47
2023/03/24 00:57:48;;;;;;;0.77;0.50;;;;;;;12.92;98.94;99333.00;4967085;28;20054;-48
2023/03/24 01:00:18;;;;;;;4.25;1.00;;;;;;;13.05;99.85;99331.34;4967963;28;20046;-48
2023/03/24 01:02:46;;;;;;;0.22;0.22;;;;;;;13.07;99.32;99320.88;4967590;28;20034;-48
2023/03/24 01:05:13;;;;;;;0.30;0.30;;;;;;;13.01;100.00;99311.66;4948752;28;20062;-47
2023/03/24 01:07:41;;;;;;;0.30;0.30;;;;;;;12.80;100.00;99320.78;4967628;28;20034;-47
2023/03/24 01:10:13;;;;;;;0.38;0.38;;;;;;;13.02;100.00;99321.31;4987339;28;20033;-48
2023/03/24 01:12:39;;;;;;;0.60;0.38;;;;;;;12.98;100.00;99315.97;5042295;28;20111;-50
2023/03/24 01:15:10;;;;;;;0.10;0.10;;;;;;;12.89;100.00;99315.66;5042959;28;20495;-48
2023/03/24 01:17:36;;;;;;;0.10;0.10;;;;;;;12.89;100.00;99312.22;5029687;28;20039;-48
2023/03/24 01:20:09;;;;;;;0.45;0.35;;;;;;;12.99;100.00;99298.56;5045972;28;20120;-47
2023/03/24 01:22:36;;;;;;;2.40;0.40;;;;;;;12.87;100.00;99292.94;5021141;28;20029;-49
2023/03/24 01:25:15;;;;;;;0.20;0.20;;;;;;;12.90;100.00;99289.41;5033081;28;20050;-49
2023/03/24 01:27:44;;;;;;;0.88;0.50;;;;;;;12.73;100.00;99283.03;5047859;28;20045;-48
2023/03/24 01:30:16;;;;;;;0.32;0.32;;;;;;;12.90;100.00;99281.31;5030382;28;20676;-51
2023/03/24 01:32:42;;;;;;;0.75;0.40;;;;;;;12.55;100.00;99268.94;5048088;28;20021;-48
2023/03/24 01:35:10;;;;;;;0.55;0.50;;;;;;;12.73;100.00;99264.13;5031135;28;21904;-48
2023/03/24 01:37:36;;;;;;;0.35;0.30;;;;;;;12.73;100.00;99266.84;5021961;28;20091;-47
2023/03/24 01:40:06;;;;;;;0.43;0.32;;;;;;;12.55;100.00;99260.84;5016203;28;20033;-47
2023/03/24 01:42:31;;;;;;;0.20;0.20;;;;;;;12.62;100.00;99258.06;5043749;28;20143;-48
2023/03/24 01:45:00;;;;;;;0.45;0.30;;;;;;;12.79;100.00;99250.94;5048914;28;20108;-49
2023/03/24 01:47:26;;;;;;;3.47;0.60;;;;;;;12.97;100.00;99235.31;5041389;28;20025;-53
2023/03/24 01:49:58;;;;;;;1.27;0.73;;;;;;;12.77;100.00;99234.38;5008915;28;20029;-48
2023/03/24 01:52:27;;;;;;;0.93;0.57;;;;;;;12.84;100.00;99226.19;5046767;28;20143;-48
2023/03/24 01:54:59;;;;;;;0.68;0.38;;;;;;;12.80;100.00;99223.53;5041977;28;20079;-47
2023/03/24 01:57:30;;;;;;;0.88;0.40;;;;;;;12.59;100.00;99212.97;5026813;28;20120;-50
2023/03/24 01:59:59;;;;;;;;;;;;;;;12.52;100.00;99204.97;5038022;28;20025;-48
2023/03/24 02:02:53;;;;;;;0.30;0.30;;;;;;;12.56;100.00;99205.69;5022744;28;19913;-50
2023/03/24 02:05:27;;;;;;;0.28;0.28;;;;;;;12.66;100.00;99196.66;5029853;28;20517;-47
2023/03/24 02:08:03;;;;;;;0.47;0.47;;;;;;;12.57;100.00;99194.47;5045559;28;20033;-49
2023/03/24 02:10:32;;;;;;;0.47;0.47;;;;;;;12.79;100.00;99186.09;5046735;28;20445;-47
2023/03/24 02:12:57;;;;;;;0.68;0.60;;;;;;;12.83;100.00;99194.94;5044098;28;20025;-47
2023/03/24 02:15:27;;;;;;;0.90;0.47;;;;;;;12.98;100.00;99180.84;5026616;28;20025;-49
2023/03/24 02:18:17;;;;;;;0.10;0.10;;;;;;;12.89;100.00;99174.41;5035847;28;20033;-49
2023/03/24 02:20:55;;;;;;;0.50;0.25;;;;;;;12.84;100.00;99158.63;5048846;28;20048;-53
2023/03/24 02:23:36;;;;;;;0.35;0.30;;;;;;;12.67;100.00;99160.41;5031356;28;20488;-49
2023/03/24 02:26:28;;;;;;;0.20;0.20;;;;;;;12.72;100.00;99149.13;5018971;28;20037;-50
2023/03/24 02:28:59;;;;;;;0.30;0.20;;;;;;;12.90;100.00;99157.00;5000711;28;20049;-51
2023/03/24 02:31:56;;;;;;;5.78;0.38;;;;;;;12.73;100.00;99136.41;5027651;28;20082;-48
2023/03/24 02:34:27;;;;;;;0.85;0.40;;;;;;;12.78;100.00;99147.50;5036330;28;20029;-51
2023/03/24 02:37:20;;;;;;;0.50;0.40;;;;;;;12.46;100.00;99136.38;5035488;28;20028;-51
2023/03/24 02:40:15;;;;;;;1.88;0.43;;;;;;;12.49;100.00;99132.84;5045498;28;20064;-48
2023/03/24 02:43:03;;;;;;;0.52;0.40;;;;;;;12.62;100.00;99121.09;5028996;28;20481;-52
2023/03/24 02:45:49;;;;;;;0.40;0.40;;;;;;;12.83;100.00;99122.00;5044217;28;20033;-51
2023/03/24 02:48:14;;;;;;;0.45;0.40;;;;;;;12.57;100.00;99118.84;5030247;28;20048;-50
2023/03/24 02:50:49;;;;;;;0.60;0.40;;;;;;;12.50;100.00;99110.09;5027054;28;20029;-49
2023/03/24 02:53:36;;;;;;;0.63;0.60;;;;;;;12.69;100.00;99104.81;5047678;28;20131;-50
2023/03/24 02:56:51;;;;;;;0.20;0.20;;;;;;;12.76;100.00;99097.75;5021615;28;20488;-47
2023/03/24 02:59:48;;;;;;;0.30;0.28;;;;;;;12.79;100.00;99105.06;5031712;28;20439;-49
2023/03/24 03:02:38;;;;;;;0.50;0.50;;;;;;;12.74;100.00;99090.06;5047255;28;20041;-48
2023/03/24 03:05:13;;;;;;;0.32;0.30;;;;;;;12.81;100.00;99092.69;5029095;28;20025;-49
2023/03/24 03:07:40;;;;;;;1.77;0.60;;;;;;;12.84;100.00;99083.75;5050844;28;20036;-48
2023/03/24 03:10:18;;;;;;;0.65;0.25;;;;;;;12.80;100.00;99076.88;5029726;28;20108;-47
2023/03/24 03:12:47;;;;;;;0.55;0.35;;;;;;;12.78;100.00;99085.38;5038765;28;20040;-47
2023/03/24 03:15:18;;;;;;;0.28;0.28;;;;;;;12.78;100.00;99073.81;5050769;28;20029;-50
2023/03/24 03:18:10;;;;;;;1.08;0.30;;;;;;;12.64;100.00;99066.66;5050977;28;20204;-49
2023/03/24 03:20:41;;;;;;;0.77;0.40;;;;;;;12.79;100.00;99059.91;5025493;28;20407;-48
2023/03/24 03:23:15;;;;;;;0.20;0.20;;;;;;;12.85;100.00;99049.41;5049238;28;20438;-48
2023/03/24 03:25:49;;;;;;;0.68;0.40;;;;;;;12.97;100.00;99044.19;5050097;28;20202;-47
2023/03/24 03:28:20;;;;;;;1.92;0.70;;;;;;;12.93;100.00;99042.72;5027073;28;20546;-51
2023/03/24 03:30:52;;;;;;;0.77;0.68;;;;;;;12.92;100.00;99025.75;5032621;28;20035;-48
2023/03/24 03:33:23;;;;;;;0.63;0.50;;;;;;;12.67;100.00;99020.72;5050174;28;20029;-48
2023/03/24 03:36:16;;;;;;;0.82;0.60;;;;;;;12.69;100.00;99012.22;5050278;28;20390;-48
2023/03/24 03:38:56;;;;;;;0.28;0.20;;;;;;;12.61;100.00;99008.09;5020531;28;20033;-48
2023/03/24 03:41:22;;;;;;;0.30;0.30;;;;;;;12.85;100.00;99008.88;5041898;28;20036;-48
2023/03/24 03:43:49;;;;;;;0.47;0.40;;;;;;;12.87;100.00;99001.91;5036135;28;20025;-49
2023/03/24 03:46:16;;;;;;;0.30;0.30;;;;;;;12.90;100.00;98997.59;5041207;28;20029;-47
2023/03/24 03:48:44;;;;;;;0.25;0.25;;;;;;;12.90;100.00;98997.59;5026505;28;20071;-47
2023/03/24 03:51:11;;;;;;;0.30;0.30;;;;;;;12.87;100.00;98991.09;5042653;28;20033;-50
2023/03/24 03:53:51;;;;;;;0.47;0.47;;;;;;;12.99;100.00;98978.94;5038801;28;20061;-47
2023/03/24 03:56:21;;;;;;;0.35;0.35;;;;;;;13.05;100.00;98985.41;5034339;28;20215;-50
2023/03/24 03:58:58;;;;;;;0.40;0.40;;;;;;;12.92;100.00;98971.69;5041957;28;20456;-48
2023/03/24 04:01:27;;;;;;;0.30;0.30;;;;;;;13.08;100.00;98973.78;5043146;28;20116;-47
2023/03/24 04:04:25;;;;;;;0.70;0.57;;;;;;;13.09;100.00;98967.97;5018118;28;20020;-48
2023/03/24 04:08:03;;;;;;;0.88;0.50;;;;;;;13.10;100.00;98963.31;5043750;28;20045;-47
2023/03/24 04:11:22;;;;;;;0.85;0.47;;;;;;;12.98;100.00;98958.47;5028998;28;20040;-51
2023/03/24 04:14:29;;;;;;;1.08;0.60;;;;;;;13.03;100.00;98963.41;5014074;28;20040;-48
2023/03/24 04:17:26;;;;;;;0.60;0.60;;;;;;;12.88;100.00;98954.00;5049042;28;20048;-47
2023/03/24 04:20:00;;;;;;;0.55;0.50;;;;;;;12.99;100.00;98957.31;5031705;28;20143;-51
2023/03/24 04:22:48;;;;;;;0.43;0.35;;;;;;;13.14;100.00;98970.19;5029441;28;20106;-50
2023/03/24 04:25:27;;;;;;;0.52;0.52;;;;;;;13.19;100.00;98953.50;5034191;28;20515;-47
2023/03/24 04:28:40;;;;;;;0.30;0.30;;;;;;;13.33;100.00;98952.47;5041524;28;20026;-51
2023/03/24 04:31:17;;;;;;;1.35;0.57;;;;;;;13.20;100.00;98943.47;4932971;29;20403;-53
2023/03/24 04:33:47;;;;;;;0.68;0.50;;;;;;;13.10;100.00;98941.72;4941398;29;20122;-48
2023/03/24 04:36:16;;;;;;;1.08;0.77;;;;;;;13.12;100.00;98937.41;4938203;29;20101;-47
2023/03/24 04:39:04;;;;;;;2.75;1.45;;;;;;;13.27;100.00;98937.91;4943522;29;20031;-47
2023/03/24 04:41:41;;;;;;;0.68;0.65;;;;;;;13.26;100.00;98934.44;4948389;29;20171;-53
2023/03/24 04:44:16;;;;;;;0.52;0.40;;;;;;;13.17;100.00;98936.16;4935487;29;20028;-49
2023/03/24 04:47:03;;;;;;;0.40;0.32;;;;;;;13.15;100.00;98933.09;4944874;29;20118;-48
2023/03/24 04:49:29;;;;;;;1.95;1.02;;;;;;;13.16;100.00;98919.19;4939246;29;20051;-49
2023/03/24 04:51:55;;;;;;;0.65;0.60;;;;;;;13.24;100.00;98917.13;4930477;29;20091;-50
2023/03/24 04:54:26;;;;;;;0.35;0.35;;;;;;;13.21;100.00;98907.13;4930693;29;20077;-48
2023/03/24 04:57:01;;;;;;;0.45;0.32;;;;;;;13.27;100.00;98911.66;4930583;29;20042;-48
2023/03/24 04:59:30;;;;;;;0.47;0.47;;;;;;;13.34;100.00;98899.91;4943140;29;20027;-48
2023/03/24 05:01:56;;;;;;;0.60;0.30;;;;;;;13.43;100.00;98905.56;4983435;28;20037;-48
2023/03/24 05:04:35;;;;;;;0.63;0.47;;;;;;;13.33;100.00;98898.41;5037225;28;20082;-47
2023/03/24 05:07:14;;;;;;;0.82;0.65;;;;;;;13.45;100.00;98895.81;5029184;28;20029;-48
2023/03/24 05:09:40;;;;;;;4.18;0.50;;;;;;;13.35;100.00;98890.66;5037200;28;20037;-50
2023/03/24 05:12:05;;;;;;;0.80;0.60;;;;;;;13.52;100.00;98893.00;5031107;28;20094;-53
2023/03/24 05:14:44;;;;;;;0.70;0.70;;;;;;;13.75;100.00;98889.41;5032963;28;20037;-52
2023/03/24 05:17:09;;;;;;;0.50;0.50;;;;;;;13.52;100.00;98881.41;5030726;28;20540;-50
2023/03/24 05:19:36;;;;;;;0.65;0.50;;;;;;;13.59;100.00;98879.31;5049845;28;20455;-49
2023/03/24 05:22:01;;;;;;;0.47;0.40;;;;;;;13.45;100.00;98879.59;5032960;28;20035;-50
2023/03/24 05:24:27;;;;;;;0.82;0.60;;;;;;;13.53;100.00;98872.88;5028146;28;20029;-49
2023/03/24 05:26:52;;;;;;;1.00;0.20;;;;;;;13.60;100.00;98880.09;5040345;28;20037;-51
2023/03/24 05:29:19;;;;;;;1.10;0.55;;;;;;;13.57;100.00;98873.56;5033273;28;20078;-51
2023/03/24 05:31:44;;;;;;;0.80;0.52;;;;;;;13.70;100.00;98879.09;5040064;28;20116;-51
2023/03/24 05:34:21;;;;;;;0.45;0.35;;;;;;;13.49;100.00;98884.97;5031924;28;20496;-52
2023/03/24 05:36:55;;;;;;;0.60;0.60;;;;;;;13.47;100.00;98882.66;5032220;28;20032;-48
2023/03/24 05:39:21;;;;;;;1.38;0.55;;;;;;;13.55;100.00;98883.25;5017048;28;20103;-54
2023/03/24 05:42:07;;;;;;;0.88;0.45;;;;;;;13.53;100.00;98886.38;5036497;28;20044;-51
2023/03/24 05:44:33;;;;;;;0.40;0.38;;;;;;;13.65;100.00;98881.50;5033337;28;20030;-47
2023/03/24 05:47:14;;;;;;;0.22;0.22;;;;;;;13.77;100.00;98880.88;5022921;28;20059;-47
2023/03/24 05:49:42;;;;;;;0.57;0.40;;;;;;;13.64;100.00;98871.88;5012061;28;20034;-50
2023/03/24 05:52:08;;;;;;;0.50;0.43;;;;;;;13.61;100.00;98870.78;5009561;28;20162;-47
2023/03/24 05:54:38;;;;;;;0.82;0.40;;;;;;;13.64;100.00;98869.19;5013728;28;20033;-48
2023/03/24 05:57:15;;;;;;;1.10;0.60;;;;;;;13.79;100.00;98873.88;5014156;28;20087;-51
2023/03/24 06:00:15;;;;;;;0.32;0.30;;;;;;;13.98;100.00;98867.66;5032722;28;20745;-50
2023/03/24 06:02:44;;;;;;;0.30;0.30;;;;;;;13.96;100.00;98864.59;5002934;28;21398;-48
2023/03/24 06:05:44;;;;;;;0.63;0.38;;;;;;;13.74;100.00;98860.84;5019727;28;20107;-51
2023/03/24 06:08:11;;;;;;;0.82;0.73;;;;;;;13.74;100.00;98851.97;5036978;28;20053;-46
2023/03/24 06:10:36;;;;;;;1.23;0.30;;;;;;;13.81;100.00;98857.97;5030811;28;20063;-48
2023/03/24 06:13:02;;;;;;;1.05;0.55;;;;;;;13.86;100.00;98868.28;5017514;28;20033;-53
2023/03/24 06:15:29;;;;;;;0.98;0.52;;;;;;;13.90;100.00;98862.84;5018247;28;20029;-50
2023/03/24 06:18:06;;;;;;;0.50;0.40;;;;;;;13.93;100.00;98843.03;5018923;28;20113;-48
2023/03/24 06:20:33;;;;;;;0.35;0.35;;;;;;;13.98;100.00;98840.56;5020176;28;20496;-48
2023/03/24 06:23:06;;;;;;;0.77;0.57;;;;;;;13.72;100.00;98836.16;5018345;28;20045;-50
2023/03/24 06:25:52;;;;;;;0.77;0.60;;;;;;;13.84;100.00;98832.78;5027310;28;20416;-49
2023/03/24 06:28:24;;;;;;;0.25;0.25;;;;;;;13.85;100.00;98837.03;5018725;28;20087;-47
2023/03/24 06:30:51;;;;;;;0.70;0.50;;;;;;;13.80;100.00;98832.09;5029670;28;20511;-51
2023/03/24 06:33:24;;;;;;;1.05;0.70;;;;;;;13.91;100.00;98831.88;4987757;28;20030;-49
2023/03/24 06:35:52;;;;;;;0.85;0.55;;;;;;;13.94;100.00;98836.41;5008378;28;20074;-50
2023/03/24 06:38:17;;;;;;;1.00;0.50;;;;;;;14.05;100.00;98836.97;5004188;28;21214;-47
2023/03/24 06:40:44;;;;;;;4.10;0.50;;;;;;;13.98;100.00;98843.28;5017478;28;20056;-47
2023/03/24 06:43:09;;;;;;;0.40;0.32;;;;;;;13.91;100.00;98840.75;5026010;28;20067;-47
2023/03/24 06:45:38;;;;;;;0.45;0.35;;;;;;;13.80;100.00;98842.91;5018530;28;20061;-54
2023/03/24 06:48:05;;;;;;;0.57;0.40;;;;;;;13.78;100.00;98853.41;5019015;28;20029;-48
2023/03/24 06:50:33;;;;;;;0.45;0.40;;;;;;;13.91;100.00;98867.03;5030375;28;20040;-54
2023/03/24 06:53:03;;;;;;;1.30;0.70;;;;;;;13.83;100.00;98871.09;5015233;28;20029;-52
2023/03/24 06:55:31;;;;;;;1.27;0.40;;;;;;;13.81;100.00;98863.41;5022399;28;20605;-47
2023/03/24 06:57:57;;;;;;;1.27;0.52;;;;;;;13.93;100.00;98876.28;5011811;28;20025;-49
2023/03/24 07:00:35;;;;;;;0.77;0.40;;;;;;;13.98;100.00;98883.13;5034231;28;20487;-52
2023/03/24 07:03:23;;;;;;;0.57;0.35;;;;;;;14.02;100.00;98875.69;5044413;28;20033;-48
2023/03/24 07:06:09;;;;;;;0.70;0.55;;;;;;;13.96;100.00;98872.72;4981488;28;20128;-50
2023/03/24 07:08:36;;;;;;;0.30;0.30;;;;;;;14.10;100.00;98875.09;5050294;28;20037;-51
2023/03/24 07:11:02;;;;;;;0.30;0.30;;;;;;;14.15;100.00;98871.88;5032021;28;20036;-48
2023/03/24 07:13:28;;;;;;;0.40;0.40;;;;;;;14.17;100.00;98874.94;5030084;28;20034;-50
2023/03/24 07:16:01;;;;;;;0.63;0.30;;;;;;;14.03;100.00;98879.94;5047437;28;20214;-49
2023/03/24 07:18:27;;;;;;;0.88;0.38;;;;;;;14.16;100.00;98878.84;5042157;28;20028;-49
2023/03/24 07:20:58;;;;;;;0.63;0.40;;;;;;;14.15;100.00;98882.72;5033337;28;20039;-49
2023/03/24 07:23:26;;;;;;;0.47;0.47;;;;;;;14.22;100.00;98889.91;5033591;28;20059;-52
2023/03/24 07:25:59;;;;;;;0.50;0.50;;;;;;;14.24;100.00;98899.16;5048654;28;20193;-49
2023/03/24 07:28:54;;;;;;;0.40;0.30;;;;;;;14.22;100.00;98909.66;5028825;28;20048;-49
2023/03/24 07:31:37;;;;;;;0.50;0.40;;;;;;;14.25;100.00;98933.16;5037022;28;20029;-52
2023/03/24 07:34:26;;;;;;;0.57;0.25;;;;;;;14.09;100.00;98929.69;5027025;28;20029;-49
2023/03/24 07:36:54;;;;;;;0.43;0.30;;;;;;;13.93;100.00;98943.16;4928042;29;20594;-50
2023/03/24 07:39:20;;;;;;;0.30;0.20;;;;;;;14.08;100.00;98942.44;4951108;29;20039;-48
2023/03/24 07:41:47;;;;;;;0.50;0.40;;;;;;;14.26;100.00;98950.19;4935394;29;20465;-47
2023/03/24 07:44:35;;;;;;;0.65;0.65;;;;;;;13.92;100.00;98950.50;4930726;29;20394;-48
2023/03/24 07:47:00;;;;;;;0.20;0.20;;;;;;;14.01;100.00;98958.84;4948027;28;20027;-51
2023/03/24 07:49:26;;;;;;;1.10;0.10;;;;;;;13.95;100.00;98963.22;4939949;29;20589;-48
2023/03/24 07:52:06;;;;;;;0.45;0.35;;;;;;;13.67;100.00;98969.19;4930368;29;20174;-47
2023/03/24 07:54:44;;;;;;;0.55;0.28;;;;;;;13.74;100.00;98958.25;4926196;29;20047;-47
2023/03/24 07:57:21;;;;;;;0.20;0.10;;;;;;;14.00;100.00;98976.25;4940193;29;20067;-51
2023/03/24 07:59:47;;;;;;;0.10;0.10;;;;;;;13.97;100.00;98987.94;4935285;29;20097;-49
2023/03/24 08:02:19;;;;;;;0.35;0.20;;;;;;;13.56;100.00;98987.59;4929486;29;20086;-52
2023/03/24 08:04:55;;;;;;;0.10;0.10;;;;;;;13.66;100.00;98997.44;4948642;29;20037;-50
2023/03/24 08:07:49;;;;;;;0.38;0.20;;;;;;;13.79;100.00;99011.09;4950440;29;20043;-46
2023/03/24 08:10:15;;;;;;;0.13;0.13;;;;;;;13.93;99.91;99022.41;4950373;29;20035;-48
2023/03/24 08:12:41;;;;;;;0.25;0.25;;;;;;;14.16;99.04;99029.69;4948529;28;20042;-52
2023/03/24 08:15:08;;;;;;;0.22;0.22;;;;;;;14.52;94.52;99021.59;5051130;28;20037;-47
2023/03/24 08:17:34;;;;;;;0.10;0.05;;;;;;;14.59;92.95;99033.03;5050174;28;20025;-47
2023/03/24 08:20:00;;;;;;;1.23;0.13;;;;;;;14.78;92.88;99028.72;5045338;28;20033;-47
2023/03/24 08:22:27;;;;;;;0.08;0.08;;;;;;;14.46;92.20;99035.63;5044063;28;20430;-48
2023/03/24 08:24:52;;;;;;;0.10;0.10;;;;;;;14.85;91.63;99045.59;5050386;28;20126;-49
2023/03/24 08:27:17;;;;;;;0.00;0.00;;;;;;;14.93;90.13;99055.09;5051089;28;20056;-53
2023/03/24 08:29:43;;;;;;;0.25;0.20;;;;;;;15.23;89.59;99060.16;5039996;28;20029;-50
2023/03/24 08:32:08;;;;;;;0.20;0.20;;;;;;;15.45;89.31;99071.28;5050876;28;20387;-49
2023/03/24 08:34:34;;;;;;;0.10;0.10;;;;;;;15.72;88.66;99077.16;5042370;28;20034;-50
2023/03/24 08:37:00;;;;;;;0.98;0.40;;;;;;;15.65;88.13;99073.88;5040263;28;20037;-47
2023/03/24 08:39:25;;;;;;;0.45;0.30;;;;;;;15.57;86.06;99092.28;5038066;28;20077;-47
2023/03/24 08:41:53;;;;;;;0.57;0.20;;;;;;;15.61;84.59;99086.78;5038690;28;20107;-49
2023/03/24 08:44:19;;;;;;;0.10;0.10;;;;;;;15.46;84.60;99099.94;5038535;28;20435;-48
2023/03/24 08:46:45;;;;;;;0.88;0.45;;;;;;;15.45;84.16;99097.66;5048571;28;20024;-48
2023/03/24 08:49:10;;;;;;;0.30;0.20;;;;;;;15.52;83.30;99106.41;5050853;28;20040;-52
2023/03/24 08:51:35;;;;;;;1.83;0.30;;;;;;;15.59;84.39;99105.44;5041439;28;20047;-48
2023/03/24 08:54:02;;;;;;;0.10;0.10;;;;;;;15.60;84.13;99106.97;5048506;28;20040;-48
2023/03/24 08:56:28;;;;;;;0.03;0.03;;;;;;;15.50;83.25;99103.34;5033906;28;20045;-48
2023/03/24 08:58:54;;;;;;;0.30;0.05;;;;;;;15.04;83.80;99114.50;5050373;28;20037;-48
2023/03/24 09:01:21;;;;;;;0.20;0.10;;;;;;;15.15;82.02;99121.22;5044361;28;20041;-52
2023/03/24 09:03:47;;;;;;;0.20;0.20;;;;;;;15.25;82.63;99117.47;5044349;28;20519;-53
2023/03/24 09:06:14;;;;;;;0.43;0.20;;;;;;;15.38;81.48;99120.28;5037024;28;20129;-51
2023/03/24 09:08:40;;;;;;;0.05;0.05;;;;;;;15.18;82.81;99117.63;5042042;28;20037;-47
2023/03/24 09:11:12;;;;;;;0.10;0.10;;;;;;;14.59;85.53;99116.25;5043581;28;20039;-48
2023/03/24 09:13:38;;;;;;;0.30;0.10;;;;;;;14.78;84.79;99127.06;5044723;28;20036;-49
2023/03/24 09:16:03;;;;;;;3.65;0.40;;;;;;;15.02;82.54;99133.13;5033953;28;20017;-51
2023/03/24 09:18:29;;;;;;;0.10;0.10;;;;;;;15.01;81.62;99131.59;5049727;28;20041;-47
2023/03/24 09:20:54;;;;;;;0.00;0.00;;;;;;;15.10;80.88;99145.31;5046938;28;20099;-48
2023/03/24 09:23:20;;;;;;;0.47;0.38;;;;;;;15.32;80.32;99146.38;5045552;28;20048;-51
2023/03/24 09:25:53;;;;;;;0.10;0.10;;;;;;;15.27;78.96;99125.19;5037956;28;20026;-50
2023/03/24 09:28:20;;;;;;;0.10;0.10;;;;;;;15.25;78.64;99144.59;5040175;28;20029;-49
2023/03/24 09:30:46;;;;;;;1.45;0.20;;;;;;;15.42;76.66;99150.81;5039951;28;20021;-51
2023/03/24 09:33:12;;;;;;;0.55;0.10;;;;;;;15.41;77.09;99143.09;5046169;28;20074;-54
2023/03/24 09:35:38;;;;;;;0.03;0.03;;;;;;;15.49;77.23;99158.78;5042665;28;20040;-54
2023/03/24 09:38:03;;;;;;;0.10;0.10;;;;;;;15.49;76.66;99161.50;5039899;28;20033;-47
2023/03/24 09:40:32;;;;;;;0.10;0.10;;;;;;;15.63;76.77;99171.25;5046485;28;20071;-50
2023/03/24 09:43:11;;;;;;;1.77;0.15;;;;;;;15.49;77.63;99185.16;5049378;28;20025;-52
2023/03/24 09:45:47;;;;;;;0.45;0.20;;;;;;;15.21;79.30;99175.69;5048861;28;20045;-52
2023/03/24 09:48:22;;;;;;;0.45;0.40;;;;;;;15.66;77.82;99171.16;5041986;28;20041;-54
2023/03/24 09:50:58;;;;;;;0.10;0.10;;;;;;;16.00;73.86;99179.63;5035318;28;20041;-48
2023/03/24 09:53:38;;;;;;;0.90;0.60;;;;;;;15.93;74.54;99185.22;5031171;28;20033;-53
2023/03/24 09:56:12;;;;;;;1.45;0.20;;;;;;;15.96;72.04;99184.38;5028661;28;20455;-49
2023/03/24 09:58:40;;;;;;;0.20;0.20;;;;;;;15.40;73.56;99174.88;5027973;28;20468;-48
2023/03/24 10:01:16;;;;;;;1.40;1.00;;;;;;;15.10;75.83;99207.69;5048847;28;20476;-50
2023/03/24 10:03:43;;;;;;;1.30;0.75;;;;;;;15.02;74.78;99198.22;5035484;28;20029;-52
2023/03/24 10:06:25;;;;;;;0.00;0.00;;;;;;;14.90;76.44;99198.84;5035697;28;20059;-48
2023/03/24 10:09:02;;;;;;;0.10;0.10;;;;;;;14.63;77.97;99204.44;5043714;28;20028;-48
2023/03/24 10:11:56;;;;;;;4.30;0.13;;;;;;;15.27;75.17;99212.00;5036665;28;20459;-45
2023/03/24 10:14:39;;;;;;;1.27;0.20;;;;;;;15.27;72.67;99214.72;5036970;28;20045;-49
2023/03/24 10:17:24;;;;;;;0.28;0.20;;;;;;;15.19;72.53;99207.91;5048055;28;20032;-45
2023/03/24 10:19:56;;;;;;;0.55;0.10;;;;;;;14.77;74.69;99197.97;5033748;28;20713;-51
2023/03/24 10:22:36;;;;;;;0.20;0.13;;;;;;;15.15;73.15;99204.50;5041810;28;20041;-58
2023/03/24 10:25:25;;;;;;;1.88;0.57;;;;;;;15.19;73.79;99197.06;5048862;28;20033;-45
2023/03/24 10:28:24;;;;;;;0.00;0.00;;;;;;;14.87;74.82;99203.16;5048248;28;20029;-53
2023/03/24 10:30:53;;;;;;;0.25;0.25;;;;;;;14.92;75.51;99207.31;5042763;28;20075;-47
2023/03/24 10:33:19;;;;;;;0.40;0.40;;;;;;;15.07;75.57;99212.03;5049294;28;20514;-46
2023/03/24 10:36:01;;;;;;;0.35;0.20;;;;;;;15.58;71.24;99209.75;5049104;28;20115;-47
2023/03/24 10:38:27;;;;;;;1.02;0.20;;;;;;;15.66;70.51;99211.88;5041271;28;20032;-53
2023/03/24 10:40:54;;;;;;;0.22;0.17;;;;;;;15.49;69.88;99206.84;5048613;28;20499;-45
2023/03/24 10:43:22;;;;;;;0.88;0.20;;;;;;;15.52;70.41;99214.94;5022077;28;20463;-49
2023/03/24 10:45:51;;;;;;;0.32;0.20;;;;;;;15.80;69.51;99214.25;5038336;28;20037;-49
2023/03/24 10:48:39;;;;;;;0.22;0.10;;;;;;;15.74;71.58;99218.66;5046646;28;20021;-58
2023/03/24 10:51:05;;;;;;;0.13;0.13;;;;;;;15.90;71.53;99202.38;5046440;28;20077;-46
2023/03/24 10:53:32;;;;;;;0.45;0.45;;;;;;;16.39;67.89;99216.63;5026865;28;20041;-53
2023/03/24 10:55:58;;;;;;;0.00;0.00;;;;;;;16.52;69.64;99222.91;5049124;28;20017;-47
2023/03/24 10:58:40;;;;;;;0.32;0.10;;;;;;;16.79;65.12;99225.25;5048423;28;20400;-48
2023/03/24 11:01:30;;;;;;;0.40;0.20;;;;;;;16.87;65.40;99224.63;5030378;28;20029;-48
2023/03/24 11:04:03;;;;;;;0.25;0.25;;;;;;;16.69;64.84;99226.31;5031293;28;20041;-53
2023/03/24 11:06:28;;;;;;;0.10;0.10;;;;;;;16.81;63.97;99226.38;5025257;28;20274;-48
2023/03/24 11:09:20;;;;;;;0.20;0.20;;;;;;;16.76;64.60;99231.56;5043764;28;20416;-52
2023/03/24 11:11:45;;;;;;;0.00;0.00;;;;;;;16.62;66.05;99231.97;5045588;28;20048;-46
2023/03/24 11:14:24;;;;;;;0.15;0.08;;;;;;;16.57;63.36;99238.66;5052407;28;20025;-47
2023/03/24 11:16:50;;;;;;;0.20;0.20;;;;;;;16.61;62.13;99241.28;5035414;28;20475;-47
2023/03/24 11:19:22;;;;;;;0.10;0.10;;;;;;;16.42;63.39;99261.97;5051100;28;20079;-56
2023/03/24 11:21:50;;;;;;;0.57;0.10;;;;;;;16.30;64.88;99254.50;5052180;28;20408;-50
2023/03/24 11:24:18;;;;;;;0.65;0.65;;;;;;;15.97;68.44;99266.59;5047072;28;20036;-45
2023/03/24 11:27:02;;;;;;;0.13;0.10;;;;;;;16.54;67.67;99264.00;5051825;28;20121;-45
2023/03/24 11:29:33;;;;;;;0.10;0.05;;;;;;;16.96;66.99;99264.78;5049070;28;20033;-45
2023/03/24 11:32:09;;;;;;;0.00;0.00;;;;;;;17.51;64.29;99267.09;5052550;28;20145;-50
2023/03/24 11:34:40;;;;;;;0.60;0.50;;;;;;;17.76;63.70;99269.81;5033979;28;20411;-49
2023/03/24 11:37:15;;;;;;;0.80;0.52;;;;;;;18.06;61.95;99262.25;5047102;28;20029;-46
2023/03/24 11:39:40;;;;;;;1.27;0.10;;;;;;;18.53;60.89;99276.63;5033857;28;20036;-51
2023/03/24 11:42:09;;;;;;;0.32;0.32;;;;;;;18.83;58.74;99286.88;5018123;28;20369;-45
2023/03/24 11:44:37;;;;;;;0.20;0.05;;;;;;;19.17;55.31;99272.38;5038750;28;20119;-46
2023/03/24 11:47:11;;;;;;;0.90;0.20;;;;;;;19.15;53.15;99278.31;5036070;28;20047;-46
2023/03/24 11:50:03;;;;;;;0.28;0.17;;;;;;;18.35;55.02;99279.19;5020548;28;20037;-45
2023/03/24 11:52:32;;;;;;;0.10;0.10;;;;;;;17.77;54.44;99287.66;5031544;28;20389;-50
2023/03/24 11:54:57;;;;;;;0.10;0.10;;;;;;;17.35;55.10;99275.31;5041066;28;20032;-48
2023/03/24 11:57:46;;;;;;;1.08;0.10;;;;;;;17.20;55.55;99274.22;5022333;28;20121;-54